Airfield :
LOGIN :

Register | Disclaimer

   EN    FR    IT 

 










Legend :    VFR   Marginal VFR   IFR   Intensive IFR   Very Intensive IFR
Visi :
Ceiling :
>= 8 km
>= 3000ft
5 to 8 km
1000 to 3000 ft
1500m to 5 km
500 to 1000 ft
800 to 1500m
200 to 500 ft
< 800m
< 200 ft
Symbols :   Thunderstorms  Fog  Heavy snow  Heavy precipitations  Wind > 20 kt
SIGMETs :     Misc.  Thunderstorms  Icing  Turbulence  Mountain Waves  Volcanic Ashes






- Airport Elevation : 527 ft
- IATA code : DBV


LDDU - Dubrovnik

CURRENT METAR :
  • 191430Z 19007KT 160V230 9999 FEW027 24/18 Q1013 NOSIG

EXPIRED METARs :
  • 191400Z 19005KT 140V250 9999 FEW035 25/17 Q1013 NOSIG
  • 191330Z VRB03KT 9999 FEW035 25/18 Q1013 NOSIG
  • 191300Z 23005KT 190V300 9999 FEW035 25/17 Q1013 NOSIG
  • 191230Z 21006KT 140V250 9999 FEW033 25/18 Q1013 NOSIG
  • 191200Z 19006KT 140V240 9999 FEW033 25/18 Q1014 NOSIG

TAF TAF LDDU
Valid from the 19 at 12:00 until the 20 at 12:00 UTC


191125Z 1912/2012 18008KT 9999 FEW030 TX25/1912Z TN19/2004Z
PROB30
TEMPO 1912/1914 TS FEW030CB
BECMG 1917/1919 12012KT
PROB30
TEMPO 1922/2006 VRB15G25KT TSRA SCT010 FEW020CB SCT030
BECMG 2004/2006 24008KT
BECMG 2008/2010 28012KT



MET'MAP, your aeronautical weather chart ! - Copyright ORBIFLY December 2007 - Disclaimer

ORBIFLY MET'MAP TEAM :

Programming & Development : Alexandra Zaïnal
Concept & original design : Baudouin d'Aumeries
Assistance for programming : Marc-Olivier Méhu
Technical & hardware support : Manuel Goepfert

Contact : metmap@orbifly.com




SOURCES & CREDITS :

   NOAA